Time;durP1;ratioP1;P1;durP2;ratioP2;P2;SDS_P1;SDS_P2;PMS_P1;PMS_P2;Temp;Humidity;BMP_temperature;BMP_pressure;BME280_temperature;BME280_humidity;BME280_pressure;Samples;Min_cycle;Max_cycle;Signal;HPM_P1;HPM_P2
2023/10/13 00:02:42;;;;;;;;;;;;;;;;;;;;;
2023/10/13 00:07:08;;;;;;;;;;;;;;;;;;;;;
2023/10/13 00:10:19;;;;;;;15.60;9.40;;;;;;;12.93;98.48;100112.13;133674;1304;22492;-76
2023/10/13 00:13:49;;;;;;;19.00;9.60;;;;;;;12.94;98.47;100111.71;133944;1297;22326;-76
2023/10/13 00:17:19;;;;;;;22.00;10.90;;;;;;;12.93;98.32;100118.80;133688;1299;22486;-75
2023/10/13 00:24:29;;;;;;;17.40;9.80;;;;;;;12.89;98.06;100123.23;133661;1297;22381;-75
2023/10/13 00:27:51;;;;;;;16.90;9.80;;;;;;;12.87;98.05;100121.38;133788;1300;22517;-76
2023/10/13 00:31:10;;;;;;;23.20;10.00;;;;;;;12.86;98.26;100120.54;133853;1297;23300;-76
2023/10/13 00:34:47;;;;;;;12.80;8.00;;;;;;;12.86;98.27;100123.11;133927;1297;22488;-76
2023/10/13 00:38:39;;;;;;;16.60;8.70;;;;;;;12.86;98.24;100126.52;133823;1297;22468;-76
2023/10/13 00:44:54;;;;;;;24.10;9.90;;;;;;;12.83;98.42;100119.20;133893;1299;22628;-77
2023/10/13 00:48:05;;;;;;;24.60;10.70;;;;;;;12.80;98.29;100121.88;133922;1300;22501;-76
2023/10/13 00:51:32;;;;;;;20.60;10.80;;;;;;;12.77;98.40;100122.48;133961;1297;23322;-76
2023/10/13 00:54:47;;;;;;;39.50;16.00;;;;;;;12.76;98.71;100121.08;133992;1297;23056;-77
2023/10/13 00:58:33;;;;;;;;;;;;;;;;;;;;;
2023/10/13 01:01:55;;;;;;;27.00;12.30;;;;;;;12.72;98.78;100119.54;133618;1299;23609;-77
2023/10/13 01:05:30;;;;;;;;;;;;;;;;;;;;;
2023/10/13 01:09:36;;;;;;;;;;;;;;;;;;;;;
2023/10/13 01:13:18;;;;;;;;;;;;;;;;;;;;;
2023/10/13 01:16:30;;;;;;;17.70;9.30;;;;;;;12.70;98.49;100127.59;133994;1297;22454;-76
2023/10/13 01:20:10;;;;;;;;;;;;;;;;;;;;;
2023/10/13 01:24:17;;;;;;;17.90;9.20;;;;;;;12.64;98.52;100133.26;133757;1297;22231;-76
2023/10/13 01:27:24;;;;;;;16.10;8.90;;;;;;;12.62;98.30;100130.89;134031;1299;22511;-77
2023/10/13 01:31:11;;;;;;;17.90;8.50;;;;;;;12.61;98.29;100136.64;134009;1297;22463;-76
2023/10/13 01:35:05;;;;;;;;;;;;;;;;;;;;;
2023/10/13 01:39:34;;;;;;;17.20;8.70;;;;;;;12.60;98.47;100140.05;133815;1298;22878;-76
2023/10/13 01:46:39;;;;;;;;;;;;;;;;;;;;;
2023/10/13 01:51:14;;;;;;;25.40;11.10;;;;;;;12.57;98.52;100133.02;134031;1298;22493;-76
2023/10/13 01:54:43;;;;;;;;;;;;;;;;;;;;;
2023/10/13 01:58:47;;;;;;;15.50;9.20;;;;;;;12.56;98.92;100136.52;133874;1300;22293;-75
2023/10/13 02:06:51;;;;;;;;;;;;;;;;;;;;;
2023/10/13 02:10:05;;;;;;;16.70;9.90;;;;;;;12.60;99.25;100131.09;133397;1303;22390;-76
2023/10/13 02:13:21;;;;;;;18.90;10.10;;;;;;;12.61;99.31;100132.98;133155;1304;22652;-76
2023/10/13 02:16:37;;;;;;;16.60;9.30;;;;;;;12.63;99.48;100131.88;133361;1302;22473;-77
2023/10/13 02:20:41;;;;;;;;;;;;;;;;;;;;;
2023/10/13 02:36:35;;;;;;;15.00;8.20;;;;;;;12.54;99.27;100127.52;133819;1300;22443;-76
2023/10/13 02:40:47;;;;;;;14.40;9.10;;;;;;;12.54;99.58;100127.36;134026;1300;22306;-75
2023/10/13 02:43:58;;;;;;;19.10;9.40;;;;;;;12.54;99.77;100130.14;133948;1299;23218;-76
2023/10/13 02:47:37;;;;;;;;;;;;;;;;;;;;;
2023/10/13 02:51:52;;;;;;;;;;;;;;;;;;;;;
2023/10/13 02:55:38;;;;;;;;;;;;;;;;;;;;;
2023/10/13 02:59:44;;;;;;;17.90;11.50;;;;;;;12.53;100.00;100128.20;134082;1300;22461;-76
2023/10/13 03:03:59;;;;;;;;;;;;;;;;;;;;;
2023/10/13 03:07:56;;;;;;;;;;;;;;;;;;;;;
2023/10/13 03:11:52;;;;;;;;;;;;;;;;;;;;;
2023/10/13 03:15:40;;;;;;;15.10;8.80;;;;;;;12.59;100.00;100128.25;134018;1297;23131;-75
2023/10/13 03:18:51;;;;;;;14.70;9.70;;;;;;;12.58;99.99;100130.16;133801;1297;23086;-75
2023/10/13 03:21:56;;;;;;;15.40;9.00;;;;;;;12.58;99.98;100133.17;133991;1299;22399;-76
2023/10/13 03:25:13;;;;;;;16.20;8.80;;;;;;;12.56;99.88;100138.29;134046;1297;23272;-76
2023/10/13 03:28:30;;;;;;;15.20;8.80;;;;;;;12.55;99.90;100140.15;134085;1297;22875;-76
2023/10/13 03:31:46;;;;;;;14.30;8.60;;;;;;;12.54;99.76;100139.77;134076;1304;22491;-76
2023/10/13 03:34:54;;;;;;;;;;;;;;;12.52;99.68;100131.80;133929;1300;22487;-76
2023/10/13 03:39:11;;;;;;;12.70;8.30;;;;;;;12.51;99.85;100131.56;134045;1301;22384;-76
2023/10/13 03:41:53;;;;;;;11.30;7.40;;;;;;;12.52;99.86;100136.65;133906;1297;23131;-75
2023/10/13 03:49:37;;;;;;;;;;;;;;;;;;;;;
2023/10/13 03:53:12;;;;;;;21.80;10.70;;;;;;;12.48;99.83;100123.78;133913;1297;22424;-76
2023/10/13 03:56:49;;;;;;;;;;;;;;;;;;;;;
2023/10/13 04:00:54;;;;;;;13.90;8.20;;;;;;;12.46;99.79;100126.33;133799;1299;22427;-76
2023/10/13 04:04:34;;;;;;;14.90;7.40;;;;;;;12.42;99.29;100137.98;133804;1297;22383;-77
2023/10/13 04:08:44;;;;;;;13.10;9.10;;;;;;;12.35;99.09;100134.55;134074;1290;22405;-76
2023/10/13 04:15:23;;;;;;;13.40;7.80;;;;;;;12.25;98.73;100134.50;133674;1296;22369;-75
2023/10/13 04:18:46;;;;;;;14.50;8.60;;;;;;;12.21;98.50;100128.58;134048;1297;22419;-76
2023/10/13 04:22:20;;;;;;;15.00;7.90;;;;;;;12.16;98.32;100128.20;134059;1302;23744;-76
2023/10/13 04:29:27;;;;;;;18.50;6.40;;;;;;;12.07;98.48;100122.88;134057;1297;22476;-76
2023/10/13 04:33:17;;;;;;;;;;;;;;;;;;;;;
2023/10/13 04:40:18;;;;;;;12.40;8.30;;;;;;;11.93;98.76;100116.36;133996;1297;22358;-75
2023/10/13 04:44:00;;;;;;;11.80;7.00;;;;;;;11.89;98.67;100116.25;134033;1297;22442;-76
2023/10/13 04:52:15;;;;;;;24.40;12.80;;;;;;;11.83;99.08;100120.30;133161;1304;22490;-76
2023/10/13 04:55:47;;;;;;;16.60;10.00;;;;;;;11.84;99.13;100116.11;133233;1306;22466;-75
2023/10/13 05:50:28;;;;;;;;;;;;;;;;;;;;;
2023/10/13 06:32:10;;;;;;;;;;;;;;;;;;;;;
2023/10/13 06:35:41;;;;;;;;;;;;;;;;;;;;;
2023/10/13 06:42:43;;;;;;;31.70;18.40;;;;;;;13.63;100.00;100155.26;133693;1297;24700;-75
2023/10/13 06:46:12;;;;;;;;;;;;;;;;;;;;;
2023/10/13 06:49:50;;;;;;;;;;;;;;;;;;;;;
2023/10/13 06:53:37;;;;;;;28.00;16.70;;;;;;;14.34;100.00;100153.88;133845;1300;22287;-76
2023/10/13 06:57:21;;;;;;;30.40;18.10;;;;;;;14.86;100.00;100149.55;133599;1297;259012;-76
2023/10/13 07:01:25;;;;;;;26.10;17.30;;;;;;;15.49;100.00;100133.67;133808;1300;22261;-77
2023/10/13 07:08:56;;;;;;;20.70;13.10;;;;;;;16.78;100.00;100140.10;133881;1297;22413;-77
2023/10/13 07:13:36;;;;;;;21.20;13.20;;;;;;;17.33;98.39;100141.59;133874;1297;22474;-78
2023/10/13 07:21:22;;;;;;;;;;;;;;;;;;;;;
2023/10/13 07:25:16;;;;;;;;;;;;;;;;;;;;;
2023/10/13 07:29:29;;;;;;;18.50;12.90;;;;;;;18.62;91.20;100138.52;133862;1298;22217;-78
2023/10/13 07:33:06;;;;;;;20.90;13.40;;;;;;;18.85;90.49;100140.61;133902;1301;23446;-78
2023/10/13 07:36:57;;;;;;;24.30;14.20;;;;;;;19.16;89.65;100145.39;133843;1297;22466;-78
2023/10/13 07:43:41;;;;;;;17.70;12.10;;;;;;;19.63;86.62;100138.67;133896;1304;23312;-78
2023/10/13 07:55:41;;;;;;;20.10;12.50;;;;;;;19.89;83.84;100138.08;133579;1304;23330;-77
2023/10/13 08:06:36;;;;;;;19.00;14.30;;;;;;;20.38;80.04;100119.80;133525;1297;22340;-78
2023/10/13 08:09:51;;;;;;;22.20;14.10;;;;;;;20.34;79.10;100112.66;133880;1299;22446;-78
2023/10/13 08:12:58;;;;;;;21.80;14.00;;;;;;;20.34;78.81;100115.23;133864;1297;22453;-76
2023/10/13 08:16:30;;;;;;;19.50;14.20;;;;;;;20.48;79.34;100120.53;134017;1298;22377;-76
2023/10/13 08:19:47;;;;;;;25.80;13.70;;;;;;;20.74;78.83;100120.96;133996;1304;22471;-77
2023/10/13 08:22:58;;;;;;;19.20;14.20;;;;;;;20.98;79.39;100121.58;134014;1297;22396;-76
2023/10/13 08:30:48;;;;;;;;;;;;;;;;;;;;;
2023/10/13 08:34:29;;;;;;;;;;;;;;;;;;;;;
2023/10/13 08:41:29;;;;;;;15.50;11.20;;;;;;;22.46;75.95;100117.48;133775;1305;22409;-76
2023/10/13 08:45:10;;;;;;;15.40;11.20;;;;;;;22.74;75.63;100118.83;134047;1297;22432;-76
2023/10/13 08:48:31;;;;;;;16.10;10.90;;;;;;;23.05;74.60;100119.39;134026;1303;23260;-77
2023/10/13 08:52:42;;;;;;;18.30;11.40;;;;;;;23.21;72.80;100125.19;133843;1297;23313;-77
2023/10/13 08:55:49;;;;;;;15.10;11.10;;;;;;;23.15;70.21;100129.70;133876;1297;22620;-77
2023/10/13 09:10:43;;;;;;;;;;;;;;;;;;;;;
2023/10/13 09:13:51;;;;;;;13.80;9.70;;;;;;;23.46;68.70;100122.73;133965;1298;23491;-77
2023/10/13 09:17:08;;;;;;;15.60;9.90;;;;;;;23.50;68.67;100113.73;133867;1297;22291;-76
2023/10/13 09:21:00;;;;;;;;;;;;;;;;;;;;;
2023/10/13 09:28:06;;;;;;;13.20;9.00;;;;;;;23.62;66.90;100110.27;132967;1305;22205;-76
2023/10/13 09:32:21;;;;;;;12.70;8.60;;;;;;;23.46;65.28;100107.73;134024;1298;22456;-77
2023/10/13 09:35:31;;;;;;;13.10;8.40;;;;;;;23.32;65.26;100105.83;133938;1301;22419;-77
2023/10/13 09:38:48;;;;;;;9.80;7.70;;;;;;;23.37;65.45;100106.77;134030;1297;23338;-77
2023/10/13 09:42:43;;;;;;;11.30;7.30;;;;;;;23.49;65.48;100104.70;134025;1300;23183;-76
2023/10/13 09:45:32;;;;;;;14.30;8.40;;;;;;;23.61;65.13;100104.50;133917;1301;22432;-76
2023/10/13 09:50:04;;;;;;;11.20;7.20;;;;;;;23.60;64.41;100103.04;134070;1300;22445;-77
2023/10/13 09:53:11;;;;;;;9.50;7.30;;;;;;;23.61;64.28;100097.42;133858;1304;22471;-77
2023/10/13 09:56:51;;;;;;;8.90;7.00;;;;;;;23.66;64.15;100100.34;133925;1301;23261;-77
2023/10/13 10:01:20;;;;;;;;;;;;;;;;;;;;;
2023/10/13 10:12:18;;;;;;;9.00;7.20;;;;;;;23.06;63.68;100096.60;134033;1305;22494;-77
2023/10/13 10:15:55;;;;;;;10.50;7.10;;;;;;;22.84;63.77;100083.99;133981;1301;22265;-77
2023/10/13 10:19:15;;;;;;;;;;;;;;;;;;;;;
2023/10/13 10:22:29;;;;;;;11.20;7.40;;;;;;;22.66;63.79;100067.70;134009;1301;22586;-77
2023/10/13 10:25:48;;;;;;;;;;;;;;;;;;;;;
2023/10/13 10:29:17;;;;;;;8.20;6.40;;;;;;;22.98;63.78;100061.05;134032;1304;23447;-78
2023/10/13 10:33:23;;;;;;;7.80;5.60;;;;;;;23.22;63.51;100063.65;134007;1302;22457;-76
2023/10/13 10:36:32;;;;;;;7.10;5.30;;;;;;;23.26;62.90;100050.16;134050;1299;22408;-76
2023/10/13 10:39:46;;;;;;;8.50;6.60;;;;;;;23.36;63.36;100041.57;134007;1299;22533;-76
2023/10/13 10:43:51;;;;;;;8.90;6.30;;;;;;;23.43;62.67;100040.09;134020;1304;23123;-76
2023/10/13 10:46:58;;;;;;;9.90;6.50;;;;;;;23.24;62.14;100044.52;133842;1302;23324;-76
2023/10/13 10:50:19;;;;;;;;;;;;;;;23.18;62.27;100042.70;134033;1299;23583;-77
2023/10/13 10:53:56;;;;;;;7.60;6.30;;;;;;;23.24;61.93;100033.02;134012;1303;22445;-77
2023/10/13 11:01:38;;;;;;;9.90;5.70;;;;;;;23.54;61.72;100022.10;133961;1300;22490;-77
2023/10/13 11:04:53;;;;;;;6.00;5.20;;;;;;;23.56;60.60;100027.17;133776;1302;22323;-76
2023/10/13 11:08:37;;;;;;;7.80;5.40;;;;;;;23.58;61.00;100020.64;133970;1299;22479;-78
2023/10/13 11:11:44;;;;;;;5.90;5.30;;;;;;;23.48;60.55;100016.63;134014;1302;22228;-76
2023/10/13 11:15:09;;;;;;;6.80;4.80;;;;;;;23.41;60.85;100007.94;133979;1303;22436;-76
2023/10/13 11:18:27;;;;;;;5.80;4.80;;;;;;;23.46;60.37;99999.92;133870;1303;22461;-76
2023/10/13 11:21:42;;;;;;;6.10;4.30;;;;;;;23.55;60.62;100000.40;134004;1298;22433;-76
2023/10/13 11:25:22;;;;;;;;;;;;;;;;;;;;;
2023/10/13 11:28:32;;;;;;;7.80;4.40;;;;;;;23.50;59.19;99992.82;133963;1300;22465;-74
2023/10/13 11:31:37;;;;;;;6.80;4.50;;;;;;;23.43;59.89;99985.55;134049;1297;22479;-74
2023/10/13 11:34:41;;;;;;;8.20;4.50;;;;;;;23.33;59.07;99987.82;133841;1304;23265;-74
2023/10/13 11:37:55;;;;;;;5.00;4.40;;;;;;;23.07;59.11;99990.66;134021;1299;23143;-73
2023/10/13 11:44:43;;;;;;;4.70;4.20;;;;;;;22.31;59.66;99979.81;133581;1301;22378;-74
2023/10/13 11:48:12;;;;;;;4.90;3.80;;;;;;;22.12;60.43;99977.27;134073;1301;23420;-74
2023/10/13 11:51:23;;;;;;;7.10;3.90;;;;;;;22.05;60.55;99972.83;133898;1304;23560;-73
2023/10/13 11:54:24;;;;;;;6.50;4.00;;;;;;;22.00;61.02;99971.61;134015;1302;22656;-73
2023/10/13 11:57:26;;;;;;;8.00;4.30;;;;;;;21.91;61.07;99969.91;133995;1300;22282;-74
2023/10/13 12:07:19;;;;;;;8.30;5.30;;;;;;;21.53;61.88;99957.42;134042;1304;23187;-73
2023/10/13 12:10:49;;;;;;;8.00;5.00;;;;;;;21.48;62.66;99954.72;134020;1298;23614;-73
2023/10/13 12:14:16;;;;;;;5.90;4.90;;;;;;;21.55;63.10;99957.84;134018;1298;22358;-73
2023/10/13 12:17:19;;;;;;;8.90;4.10;;;;;;;21.66;63.35;99953.60;134015;1299;22527;-73
2023/10/13 12:20:32;;;;;;;7.10;4.00;;;;;;;21.73;63.39;99949.79;133881;1299;22594;-73
2023/10/13 12:23:36;;;;;;;8.30;3.90;;;;;;;21.72;63.18;99946.27;134055;1304;22484;-74
2023/10/13 12:26:41;;;;;;;7.60;4.50;;;;;;;21.68;63.33;99940.42;134048;1304;23405;-73
2023/10/13 12:29:46;;;;;;;8.10;4.30;;;;;;;21.68;63.52;99944.23;134054;1299;22433;-73
2023/10/13 12:32:58;;;;;;;5.80;4.90;;;;;;;21.70;64.02;99943.20;134016;1298;22817;-74
2023/10/13 12:36:06;;;;;;;10.80;4.10;;;;;;;21.74;64.04;99943.36;134013;1304;22432;-73
2023/10/13 12:52:31;;;;;;;6.70;4.50;;;;;;;21.41;64.25;99928.30;133744;1302;22367;-74
2023/10/13 12:55:34;;;;;;;5.10;3.70;;;;;;;21.39;64.42;99927.92;134062;1302;22422;-74
2023/10/13 12:58:41;;;;;;;4.70;3.70;;;;;;;21.37;64.59;99927.77;133976;1299;23347;-74
2023/10/13 13:01:42;;;;;;;6.50;3.90;;;;;;;21.35;64.67;99916.76;134052;1297;22391;-74
2023/10/13 13:05:11;;;;;;;7.60;4.10;;;;;;;21.28;64.82;99907.47;133663;1302;23172;-73
2023/10/13 13:08:21;;;;;;;7.70;5.40;;;;;;;21.24;65.06;99903.46;133975;1298;22543;-74
2023/10/13 13:11:38;;;;;;;8.10;3.90;;;;;;;21.24;65.54;99901.33;133969;1296;22541;-74
2023/10/13 13:14:46;;;;;;;5.20;3.60;;;;;;;21.25;65.47;99893.92;133988;1304;22442;-74
2023/10/13 13:18:23;;;;;;;;;;;;;;;;;;;;;
2023/10/13 13:21:31;;;;;;;11.70;3.60;;;;;;;21.11;65.46;99881.89;133959;1299;22437;-74
2023/10/13 13:24:43;;;;;;;4.20;3.40;;;;;;;21.00;65.38;99876.56;133968;1299;22379;-74
2023/10/13 13:28:14;;;;;;;5.50;3.30;;;;;;;20.87;65.61;99882.14;133965;1299;23720;-74
2023/10/13 13:31:26;;;;;;;4.50;3.80;;;;;;;20.79;65.98;99880.95;133840;1301;22477;-74
2023/10/13 13:34:30;;;;;;;7.90;3.70;;;;;;;20.66;66.18;99874.13;133811;1299;22393;-73
2023/10/13 13:37:44;;;;;;;;;;;;;;;;;;;;;
2023/10/13 13:40:52;;;;;;;8.10;3.20;;;;;;;20.48;66.69;99870.77;133986;1298;22361;-77
2023/10/13 13:44:15;;;;;;;8.00;3.90;;;;;;;20.44;67.00;99867.77;134071;1297;23658;-75
2023/10/13 13:47:18;;;;;;;4.40;3.30;;;;;;;20.38;67.26;99866.36;134068;1298;22475;-74
2023/10/13 13:50:44;;;;;;;5.20;3.40;;;;;;;20.29;67.39;99866.45;134034;1299;22493;-74
2023/10/13 13:53:53;;;;;;;4.60;3.00;;;;;;;20.22;67.82;99860.40;133925;1297;22472;-74
2023/10/13 13:57:22;;;;;;;5.80;3.30;;;;;;;20.13;68.12;99854.14;133939;1300;23214;-74
2023/10/13 14:00:42;;;;;;;4.40;3.10;;;;;;;20.07;68.51;99853.36;133907;1298;23089;-74
2023/10/13 14:03:56;;;;;;;6.20;3.60;;;;;;;20.01;68.83;99857.90;134097;1298;23152;-74
2023/10/13 14:07:24;;;;;;;7.70;3.40;;;;;;;19.93;69.13;99862.79;133883;1300;22375;-74
2023/10/13 14:11:10;;;;;;;5.00;3.60;;;;;;;19.92;69.40;99862.27;134076;1297;22397;-75
2023/10/13 14:13:55;;;;;;;5.80;3.40;;;;;;;19.93;69.53;99858.48;134049;1297;22473;-78
2023/10/13 14:17:06;;;;;;;4.50;3.20;;;;;;;19.95;69.81;99853.34;133903;1299;23174;-80
2023/10/13 14:21:16;;;;;;;;;;;;;;;;;;;;;
2023/10/13 14:24:54;;;;;;;4.10;3.40;;;;;;;19.89;70.33;99839.98;134039;1301;23510;-84
2023/10/13 14:29:21;;;;;;;10.20;3.70;;;;;;;19.87;70.45;99836.03;134087;1294;22442;-82
2023/10/13 14:32:31;;;;;;;6.20;3.70;;;;;;;19.84;70.75;99828.05;133835;1303;24535;-84
2023/10/13 14:36:49;;;;;;;6.80;4.10;;;;;;;19.81;70.99;99821.31;133945;1304;22563;-81
2023/10/13 14:40:43;;;;;;;;;;;;;;;;;;;;;
2023/10/13 14:44:54;;;;;;;;;;;;;;;;;;;;;
2023/10/13 14:48:38;;;;;;;7.30;4.00;;;;;;;19.60;72.19;99807.32;133913;1301;22597;-79
2023/10/13 14:51:56;;;;;;;6.30;3.70;;;;;;;19.55;72.57;99804.04;134016;1298;22445;-81
2023/10/13 14:55:32;;;;;;;;;;;;;;;;;;;;;
2023/10/13 15:02:42;;;;;;;;;;;;;;;;;;;;;
2023/10/13 15:05:55;;;;;;;14.50;6.00;;;;;;;19.35;73.85;99783.56;133903;1300;22934;-79
2023/10/13 15:09:03;;;;;;;11.60;5.50;;;;;;;19.31;74.19;99782.80;134071;1290;22254;-81
2023/10/13 15:12:33;;;;;;;9.00;5.10;;;;;;;19.26;74.68;99787.39;133932;1300;22463;-81
2023/10/13 15:15:50;;;;;;;;;;;;;;;;;;;;;
2023/10/13 15:19:09;;;;;;;;;;;;;;;;;;;;;
2023/10/13 15:23:29;;;;;;;7.10;3.90;;;;;;;19.11;75.67;99784.05;134014;1297;22563;-82
2023/10/13 15:26:49;;;;;;;8.70;4.50;;;;;;;19.06;75.99;99784.64;133755;1298;23101;-80
2023/10/13 15:29:59;;;;;;;11.30;6.20;;;;;;;19.03;76.23;99781.65;133992;1297;22415;-81
2023/10/13 15:33:42;;;;;;;;;;;;;;;;;;;;;
2023/10/13 15:37:12;;;;;;;5.80;4.80;;;;;;;18.98;76.80;99780.39;133839;1297;22403;-82
2023/10/13 15:40:15;;;;;;;8.90;4.60;;;;;;;18.95;76.95;99775.00;133871;1297;23644;-82
2023/10/13 15:44:06;;;;;;;;;;;;;;;;;;;;;
2023/10/13 15:47:23;;;;;;;9.90;5.90;;;;;;;18.88;77.44;99763.24;133889;1297;22344;-81
2023/10/13 15:50:29;;;;;;;12.60;6.30;;;;;;;18.86;77.61;99758.56;133956;1297;22379;-81
2023/10/13 15:53:36;;;;;;;10.30;6.00;;;;;;;18.84;77.89;99754.74;133970;1297;22381;-81
2023/10/13 15:57:10;;;;;;;;;;;;;;;;;;;;;
2023/10/13 16:00:25;;;;;;;12.80;7.20;;;;;;;18.76;78.16;99749.23;133963;1297;22374;-81
2023/10/13 16:07:39;;;;;;;4.70;3.80;;;;;;;18.67;78.59;99739.41;133923;1297;22481;-80
2023/10/13 16:15:38;;;;;;;16.50;9.60;;;;;;;18.60;79.14;99737.82;133930;1297;22538;-81
2023/10/13 16:19:53;;;;;;;;;;;;;;;;;;;;;
2023/10/13 16:24:00;;;;;;;;;;;;;;;;;;;;;
2023/10/13 16:27:13;;;;;;;10.00;6.40;;;;;;;18.49;80.13;99737.96;133370;1302;24136;-81
2023/10/13 16:30:29;;;;;;;12.60;6.80;;;;;;;18.47;80.25;99737.30;133295;1301;23703;-81
2023/10/13 16:33:41;;;;;;;11.90;6.90;;;;;;;18.44;80.62;99731.64;133363;1301;22481;-81
2023/10/13 16:37:08;;;;;;;11.40;6.60;;;;;;;18.39;80.60;99730.70;133303;1302;22472;-81
2023/10/13 16:40:38;;;;;;;13.10;6.90;;;;;;;18.35;80.58;99732.20;133325;1306;22469;-81
2023/10/13 16:44:09;;;;;;;12.70;6.20;;;;;;;18.29;80.95;99725.67;133343;1303;22306;-80
2023/10/13 16:48:38;;;;;;;13.20;6.20;;;;;;;18.25;80.97;99720.98;133586;1298;22238;-82
2023/10/13 16:51:47;;;;;;;18.70;6.90;;;;;;;18.21;81.41;99713.46;133887;1297;22358;-81
2023/10/13 16:56:07;;;;;;;;;;;;;;;;;;;;;
2023/10/13 17:03:58;;;;;;;17.00;8.50;;;;;;;18.18;81.66;99706.04;133651;1299;22399;-82
2023/10/13 17:07:43;;;;;;;12.30;6.30;;;;;;;18.18;81.74;99705.16;133896;1297;23567;-82
2023/10/13 17:11:04;;;;;;;;;;;;;;;;;;;;;
2023/10/13 17:14:34;;;;;;;15.90;6.50;;;;;;;18.16;81.75;99702.80;133954;1297;22274;-79
2023/10/13 17:17:38;;;;;;;25.40;9.30;;;;;;;18.16;81.92;99699.48;133911;1300;22414;-81
2023/10/13 17:21:17;;;;;;;14.20;7.10;;;;;;;18.16;81.89;99700.65;133909;1297;23078;-81
2023/10/13 17:24:42;;;;;;;12.80;6.50;;;;;;;18.15;81.89;99695.38;133956;1298;22460;-81
2023/10/13 17:28:26;;;;;;;;;;;;;;;;;;;;;
2023/10/13 17:32:10;;;;;;;11.90;6.60;;;;;;;18.15;81.95;99691.73;134041;1300;23353;-81
2023/10/13 17:35:46;;;;;;;;;;;;;;;;;;;;;
2023/10/13 17:39:20;;;;;;;14.50;6.80;;;;;;;18.10;81.90;99685.07;134077;1297;22237;-83
2023/10/13 17:43:04;;;;;;;;;;;;;;;;;;;;;
2023/10/13 17:46:37;;;;;;;15.80;7.40;;;;;;;18.02;81.99;99684.59;134053;1297;22468;-82
2023/10/13 17:49:44;;;;;;;14.60;8.90;;;;;;;17.97;82.27;99682.99;134053;1298;22243;-78
2023/10/13 17:53:34;;;;;;;14.70;7.20;;;;;;;17.95;82.26;99680.88;134027;1298;22299;-83
2023/10/13 17:56:41;;;;;;;15.40;7.50;;;;;;;17.90;82.51;99674.49;134073;1298;22712;-82
2023/10/13 18:04:09;;;;;;;19.00;9.40;;;;;;;17.83;82.57;99670.70;134009;1304;22453;-82
2023/10/13 18:07:25;;;;;;;;;;;;;;;;;;;;;
2023/10/13 18:11:32;;;;;;;15.50;8.10;;;;;;;17.77;82.66;99660.80;134073;1298;22338;-81
2023/10/13 18:18:02;;;;;;;16.20;8.20;;;;;;;17.67;82.74;99659.41;133606;1297;22858;-82
2023/10/13 18:21:41;;;;;;;18.70;8.60;;;;;;;17.63;82.96;99656.13;134126;1297;22365;-81
2023/10/13 18:24:45;;;;;;;19.50;10.10;;;;;;;17.59;82.92;99651.02;134053;1298;22408;-82
2023/10/13 18:27:47;;;;;;;15.70;8.10;;;;;;;17.54;83.02;99651.58;134080;1298;22426;-81
2023/10/13 18:30:57;;;;;;;19.80;8.90;;;;;;;17.49;83.26;99645.27;134020;1297;22399;-81
2023/10/13 18:34:51;;;;;;;;;;;;;;;;;;;;;
2023/10/13 18:38:08;;;;;;;15.50;7.30;;;;;;;17.40;83.64;99635.87;133798;1297;22401;-82
2023/10/13 18:41:15;;;;;;;8.70;6.60;;;;;;;17.36;83.74;99638.77;133983;1300;22329;-81
2023/10/13 18:44:18;;;;;;;16.20;7.70;;;;;;;17.33;83.82;99629.23;134089;1297;22468;-81
2023/10/13 18:48:11;;;;;;;13.90;7.00;;;;;;;17.30;83.92;99627.41;134060;1298;22409;-81
2023/10/13 18:51:22;;;;;;;14.20;6.80;;;;;;;17.24;84.19;99622.05;133786;1298;23218;-81
2023/10/13 18:54:23;;;;;;;13.90;7.20;;;;;;;17.21;84.15;99619.91;133691;1300;279770;-81
2023/10/13 18:57:47;;;;;;;18.90;7.40;;;;;;;17.18;84.27;99613.96;134055;1297;22260;-81
2023/10/13 19:01:34;;;;;;;17.10;6.80;;;;;;;17.18;84.28;99607.03;134065;1297;22557;-81
2023/10/13 19:04:56;;;;;;;11.60;6.60;;;;;;;17.19;84.32;99603.72;134074;1298;22425;-82
2023/10/13 19:08:29;;;;;;;;;;;;;;;;;;;;;
2023/10/13 19:11:50;;;;;;;24.40;8.00;;;;;;;17.15;84.32;99607.48;134067;1300;22455;-80
2023/10/13 19:15:03;;;;;;;19.80;7.20;;;;;;;17.11;84.24;99607.89;134037;1297;23159;-80
2023/10/13 19:18:25;;;;;;;16.30;7.10;;;;;;;17.09;84.41;99602.91;134076;1299;23253;-80
2023/10/13 19:21:57;;;;;;;;;;;;;;;;;;;;;
2023/10/13 19:25:10;;;;;;;15.40;7.40;;;;;;;17.00;84.49;99601.02;133838;1298;22370;-80
2023/10/13 19:29:04;;;;;;;;;;;;;;;;;;;;;
2023/10/13 19:32:22;;;;;;;20.50;8.10;;;;;;;16.91;84.60;99595.27;134036;1297;22370;-79
2023/10/13 19:39:33;;;;;;;12.90;7.60;;;;;;;16.80;84.76;99586.74;133971;1300;23415;-81
2023/10/13 19:43:27;;;;;;;;;;;;;;;;;;;;;
2023/10/13 19:47:27;;;;;;;18.50;7.40;;;;;;;16.73;84.81;99583.67;133707;1304;23167;-81
2023/10/13 19:50:40;;;;;;;17.90;7.50;;;;;;;16.71;84.87;99579.70;134093;1304;22968;-81
2023/10/13 19:54:13;;;;;;;14.10;7.70;;;;;;;16.70;84.88;99577.91;134120;1300;22424;-80
2023/10/13 19:57:14;;;;;;;15.80;6.90;;;;;;;16.66;84.80;99571.79;133931;1300;22364;-81
2023/10/13 20:00:38;;;;;;;13.40;7.00;;;;;;;16.64;84.64;99568.39;134176;1297;22433;-82
2023/10/13 20:04:12;;;;;;;13.40;7.20;;;;;;;16.61;84.43;99565.58;134111;1297;22772;-82
2023/10/13 20:08:40;;;;;;;15.40;7.20;;;;;;;16.58;84.43;99561.09;134089;1297;22292;-82
2023/10/13 20:12:31;;;;;;;17.20;7.00;;;;;;;16.60;84.35;99558.03;133921;1297;22839;-82
2023/10/13 20:20:27;;;;;;;18.90;9.30;;;;;;;16.65;83.97;99547.33;133776;1297;22438;-83
2023/10/13 20:23:32;;;;;;;15.20;7.80;;;;;;;16.68;83.81;99541.61;133909;1297;22514;-83
2023/10/13 20:27:24;;;;;;;13.40;7.90;;;;;;;16.69;83.61;99535.77;133999;1297;23247;-82
2023/10/13 20:30:53;;;;;;;17.90;7.20;;;;;;;16.70;83.46;99534.67;133731;1297;23496;-82
2023/10/13 20:34:30;;;;;;;16.30;7.20;;;;;;;16.69;83.33;99536.40;133879;1297;23525;-82
2023/10/13 20:37:29;;;;;;;14.40;7.40;;;;;;;16.67;83.19;99535.11;133820;1301;22201;-82
2023/10/13 20:40:38;;;;;;;19.00;7.60;;;;;;;16.64;83.08;99531.23;133904;1297;22385;-82
2023/10/13 20:43:56;;;;;;;;;;;;;;;;;;;;;
2023/10/13 20:47:24;;;;;;;16.20;7.60;;;;;;;16.59;83.01;99529.38;133926;1288;23125;-83
2023/10/13 20:55:09;;;;;;;;;;;;;;;;;;;;;
2023/10/13 21:03:46;;;;;;;15.90;7.30;;;;;;;16.65;82.69;99515.18;133765;1297;22365;-82
2023/10/13 21:07:31;;;;;;;16.20;8.20;;;;;;;16.69;82.56;99515.04;133794;1297;22492;-82
2023/10/13 21:11:32;;;;;;;21.60;7.70;;;;;;;16.71;82.49;99512.36;134044;1297;23085;-82
2023/10/13 21:14:59;;;;;;;;;;;;;;;16.72;82.50;99505.64;134083;1299;23578;-82
2023/10/13 21:19:04;;;;;;;19.00;7.90;;;;;;;16.72;82.45;99504.80;134123;1297;22379;-82
2023/10/13 21:22:21;;;;;;;17.70;7.50;;;;;;;16.73;82.40;99496.52;134120;1301;22432;-82
2023/10/13 21:29:09;;;;;;;21.60;8.60;;;;;;;16.73;82.31;99489.23;133993;1297;23601;-82
2023/10/13 21:37:11;;;;;;;;;;;;;;;;;;;;;
2023/10/13 21:40:52;;;;;;;;;;;;;;;;;;;;;
2023/10/13 21:45:21;;;;;;;12.80;6.80;;;;;;;16.59;81.79;99483.72;134069;1299;22221;-82
2023/10/13 21:48:42;;;;;;;15.70;7.70;;;;;;;16.54;81.68;99483.07;133754;1304;22477;-82
2023/10/13 21:52:18;;;;;;;11.90;6.90;;;;;;;16.48;81.62;99482.14;133997;1304;23211;-81
2023/10/13 21:56:00;;;;;;;12.40;7.00;;;;;;;16.42;81.43;99480.51;134121;1299;22392;-82
2023/10/13 21:59:36;;;;;;;;;;;;;;;;;;;;;
2023/10/13 22:08:00;;;;;;;19.00;6.60;;;;;;;16.21;81.37;99463.52;134065;1304;22502;-83
2023/10/13 22:11:59;;;;;;;;;;;;;;;;;;;;;
2023/10/13 22:15:27;;;;;;;16.20;6.50;;;;;;;16.04;81.44;99448.88;134024;1297;22403;-81
2023/10/13 22:18:35;;;;;;;16.40;6.70;;;;;;;16.00;81.43;99445.38;134045;1304;23149;-82
2023/10/13 22:21:44;;;;;;;14.60;6.30;;;;;;;15.99;81.40;99438.10;134053;1303;22443;-82
2023/10/13 22:24:49;;;;;;;13.80;6.10;;;;;;;15.94;81.20;99432.75;134101;1298;22402;-82
2023/10/13 22:28:40;;;;;;;;;;;;;;;;;;;;;
2023/10/13 22:37:38;;;;;;;14.20;7.50;;;;;;;15.80;81.61;99425.45;133988;1304;22426;-82
2023/10/13 22:41:15;;;;;;;25.40;9.60;;;;;;;15.82;81.60;99423.25;133863;1304;22376;-81
2023/10/13 22:45:01;;;;;;;22.30;9.40;;;;;;;15.83;81.48;99418.55;134077;1300;22478;-81
2023/10/13 22:48:34;;;;;;;12.60;6.60;;;;;;;15.89;81.19;99408.83;134106;1304;22434;-81
2023/10/13 22:52:01;;;;;;;15.20;6.00;;;;;;;16.00;80.95;99404.01;133931;1300;22282;-82
2023/10/13 22:56:00;;;;;;;12.80;5.80;;;;;;;16.06;80.74;99402.10;134119;1301;22284;-82